sensor_id;sensor_type;location;lat;lon;timestamp;P1;durP1;ratioP1;P2;durP2;ratioP2
1523;SDS011;755;53.658;10.118;2023-06-22T00:04:26;6.38;;;2.97;;
1523;SDS011;755;53.658;10.118;2023-06-22T00:14:29;4.80;;;2.65;;
1523;SDS011;755;53.658;10.118;2023-06-22T00:24:31;5.47;;;3.30;;
1523;SDS011;755;53.658;10.118;2023-06-22T00:34:34;3.97;;;2.55;;
1523;SDS011;755;53.658;10.118;2023-06-22T00:44:36;5.68;;;2.38;;
1523;SDS011;755;53.658;10.118;2023-06-22T00:54:40;6.60;;;3.10;;
1523;SDS011;755;53.658;10.118;2023-06-22T01:04:45;3.40;;;2.60;;
1523;SDS011;755;53.658;10.118;2023-06-22T01:14:50;5.85;;;2.75;;
1523;SDS011;755;53.658;10.118;2023-06-22T01:25:07;4.80;;;2.80;;
1523;SDS011;755;53.658;10.118;2023-06-22T01:35:13;4.35;;;2.95;;
1523;SDS011;755;53.658;10.118;2023-06-22T01:45:16;5.57;;;3.13;;
1523;SDS011;755;53.658;10.118;2023-06-22T01:55:21;5.63;;;3.97;;
1523;SDS011;755;53.658;10.118;2023-06-22T02:05:23;5.70;;;3.88;;
1523;SDS011;755;53.658;10.118;2023-06-22T02:15:30;5.60;;;3.73;;
1523;SDS011;755;53.658;10.118;2023-06-22T02:25:33;6.25;;;2.78;;
1523;SDS011;755;53.658;10.118;2023-06-22T02:35:36;8.73;;;3.72;;
1523;SDS011;755;53.658;10.118;2023-06-22T02:45:39;8.25;;;3.20;;
1523;SDS011;755;53.658;10.118;2023-06-22T02:55:43;7.03;;;4.20;;
1523;SDS011;755;53.658;10.118;2023-06-22T03:05:46;6.65;;;3.88;;
1523;SDS011;755;53.658;10.118;2023-06-22T03:15:50;9.15;;;3.72;;
1523;SDS011;755;53.658;10.118;2023-06-22T03:25:53;8.45;;;4.13;;
1523;SDS011;755;53.658;10.118;2023-06-22T03:35:58;11.10;;;4.82;;
1523;SDS011;755;53.658;10.118;2023-06-22T03:46:01;4.55;;;3.55;;
1523;SDS011;755;53.658;10.118;2023-06-22T03:56:04;8.48;;;4.78;;
1523;SDS011;755;53.658;10.118;2023-06-22T04:06:07;9.60;;;5.05;;
1523;SDS011;755;53.658;10.118;2023-06-22T04:16:11;8.45;;;4.68;;
1523;SDS011;755;53.658;10.118;2023-06-22T04:26:13;7.78;;;5.25;;
1523;SDS011;755;53.658;10.118;2023-06-22T04:36:16;8.98;;;5.65;;
1523;SDS011;755;53.658;10.118;2023-06-22T04:46:18;7.97;;;5.57;;
1523;SDS011;755;53.658;10.118;2023-06-22T04:56:22;11.27;;;6.00;;
1523;SDS011;755;53.658;10.118;2023-06-22T05:06:28;10.32;;;5.82;;
1523;SDS011;755;53.658;10.118;2023-06-22T05:16:31;14.13;;;5.78;;
1523;SDS011;755;53.658;10.118;2023-06-22T05:26:33;13.32;;;5.63;;
1523;SDS011;755;53.658;10.118;2023-06-22T05:36:37;9.60;;;4.82;;
1523;SDS011;755;53.658;10.118;2023-06-22T05:46:40;7.13;;;3.83;;
1523;SDS011;755;53.658;10.118;2023-06-22T05:56:45;11.38;;;3.20;;
1523;SDS011;755;53.658;10.118;2023-06-22T06:06:47;4.38;;;2.50;;
1523;SDS011;755;53.658;10.118;2023-06-22T06:16:51;4.40;;;2.20;;
1523;SDS011;755;53.658;10.118;2023-06-22T06:26:52;4.50;;;2.63;;
1523;SDS011;755;53.658;10.118;2023-06-22T06:36:56;6.88;;;3.00;;
1523;SDS011;755;53.658;10.118;2023-06-22T06:46:58;6.85;;;2.65;;
1523;SDS011;755;53.658;10.118;2023-06-22T06:57:02;3.78;;;2.05;;
1523;SDS011;755;53.658;10.118;2023-06-22T07:07:04;3.85;;;2.08;;
1523;SDS011;755;53.658;10.118;2023-06-22T07:17:08;5.82;;;2.35;;
1523;SDS011;755;53.658;10.118;2023-06-22T07:27:10;6.63;;;2.47;;
1523;SDS011;755;53.658;10.118;2023-06-22T07:37:13;4.70;;;2.33;;
1523;SDS011;755;53.658;10.118;2023-06-22T07:47:15;6.35;;;2.65;;
1523;SDS011;755;53.658;10.118;2023-06-22T07:57:19;6.93;;;2.50;;
1523;SDS011;755;53.658;10.118;2023-06-22T08:07:21;8.65;;;2.92;;
1523;SDS011;755;53.658;10.118;2023-06-22T08:17:26;6.13;;;2.55;;
1523;SDS011;755;53.658;10.118;2023-06-22T08:27:28;8.10;;;2.80;;
1523;SDS011;755;53.658;10.118;2023-06-22T08:37:32;5.18;;;2.22;;
1523;SDS011;755;53.658;10.118;2023-06-22T08:47:35;6.38;;;2.38;;
1523;SDS011;755;53.658;10.118;2023-06-22T08:57:38;3.53;;;2.40;;
1523;SDS011;755;53.658;10.118;2023-06-22T09:07:40;4.80;;;2.42;;
1523;SDS011;755;53.658;10.118;2023-06-22T09:17:44;3.88;;;2.50;;
1523;SDS011;755;53.658;10.118;2023-06-22T09:27:47;3.40;;;2.10;;
1523;SDS011;755;53.658;10.118;2023-06-22T09:37:50;3.00;;;2.08;;
1523;SDS011;755;53.658;10.118;2023-06-22T09:47:52;5.07;;;2.55;;
1523;SDS011;755;53.658;10.118;2023-06-22T09:57:56;6.45;;;2.38;;
1523;SDS011;755;53.658;10.118;2023-06-22T10:07:58;8.75;;;2.85;;
1523;SDS011;755;53.658;10.118;2023-06-22T10:18:01;6.50;;;2.85;;
1523;SDS011;755;53.658;10.118;2023-06-22T10:28:03;3.88;;;2.30;;
1523;SDS011;755;53.658;10.118;2023-06-22T10:38:06;6.82;;;2.33;;
1523;SDS011;755;53.658;10.118;2023-06-22T10:48:09;4.68;;;2.30;;
1523;SDS011;755;53.658;10.118;2023-06-22T10:58:12;5.45;;;2.65;;
1523;SDS011;755;53.658;10.118;2023-06-22T11:08:14;4.30;;;2.92;;
1523;SDS011;755;53.658;10.118;2023-06-22T11:18:17;5.25;;;2.72;;
1523;SDS011;755;53.658;10.118;2023-06-22T11:28:19;3.92;;;2.45;;
1523;SDS011;755;53.658;10.118;2023-06-22T11:38:22;7.88;;;2.92;;
1523;SDS011;755;53.658;10.118;2023-06-22T11:48:24;6.40;;;2.95;;
1523;SDS011;755;53.658;10.118;2023-06-22T11:58:28;4.68;;;3.15;;
1523;SDS011;755;53.658;10.118;2023-06-22T12:08:30;5.65;;;3.33;;
1523;SDS011;755;53.658;10.118;2023-06-22T12:18:33;3.88;;;3.10;;
1523;SDS011;755;53.658;10.118;2023-06-22T12:28:35;3.92;;;2.85;;
1523;SDS011;755;53.658;10.118;2023-06-22T12:38:38;4.93;;;3.50;;
1523;SDS011;755;53.658;10.118;2023-06-22T12:48:40;7.93;;;4.15;;
1523;SDS011;755;53.658;10.118;2023-06-22T12:58:44;8.52;;;3.72;;
1523;SDS011;755;53.658;10.118;2023-06-22T13:08:46;5.30;;;3.88;;
1523;SDS011;755;53.658;10.118;2023-06-22T13:18:49;4.78;;;3.85;;
1523;SDS011;755;53.658;10.118;2023-06-22T13:28:52;5.13;;;4.03;;
1523;SDS011;755;53.658;10.118;2023-06-22T13:38:55;5.85;;;3.28;;
1523;SDS011;755;53.658;10.118;2023-06-22T13:48:57;3.97;;;2.92;;
1523;SDS011;755;53.658;10.118;2023-06-22T13:59:00;5.18;;;3.42;;
1523;SDS011;755;53.658;10.118;2023-06-22T14:09:02;4.47;;;3.53;;
1523;SDS011;755;53.658;10.118;2023-06-22T14:19:05;5.03;;;3.80;;
1523;SDS011;755;53.658;10.118;2023-06-22T14:29:07;6.10;;;3.95;;
1523;SDS011;755;53.658;10.118;2023-06-22T14:39:12;4.63;;;3.55;;
1523;SDS011;755;53.658;10.118;2023-06-22T14:49:14;5.43;;;3.60;;
1523;SDS011;755;53.658;10.118;2023-06-22T14:59:20;4.93;;;3.20;;
1523;SDS011;755;53.658;10.118;2023-06-22T15:09:22;5.43;;;3.57;;
1523;SDS011;755;53.658;10.118;2023-06-22T15:19:26;4.68;;;3.75;;
1523;SDS011;755;53.658;10.118;2023-06-22T15:29:28;6.82;;;3.10;;
1523;SDS011;755;53.658;10.118;2023-06-22T15:39:35;4.10;;;2.42;;
1523;SDS011;755;53.658;10.118;2023-06-22T15:49:37;16.25;;;9.35;;
1523;SDS011;755;53.658;10.118;2023-06-22T15:59:41;5.32;;;2.22;;
1523;SDS011;755;53.658;10.118;2023-06-22T16:09:43;3.58;;;2.50;;
1523;SDS011;755;53.658;10.118;2023-06-22T16:19:46;7.72;;;2.63;;
1523;SDS011;755;53.658;10.118;2023-06-22T16:29:48;7.07;;;2.83;;
1523;SDS011;755;53.658;10.118;2023-06-22T16:39:52;4.38;;;2.40;;
1523;SDS011;755;53.658;10.118;2023-06-22T16:49:54;7.10;;;2.78;;
1523;SDS011;755;53.658;10.118;2023-06-22T16:59:57;6.10;;;2.63;;
1523;SDS011;755;53.658;10.118;2023-06-22T17:09:59;6.40;;;2.50;;
1523;SDS011;755;53.658;10.118;2023-06-22T17:20:05;4.78;;;2.17;;
1523;SDS011;755;53.658;10.118;2023-06-22T17:30:09;5.07;;;2.08;;
1523;SDS011;755;53.658;10.118;2023-06-22T17:40:15;3.45;;;2.10;;
1523;SDS011;755;53.658;10.118;2023-06-22T17:50:17;3.60;;;1.60;;
1523;SDS011;755;53.658;10.118;2023-06-22T18:00:21;7.45;;;1.73;;
1523;SDS011;755;53.658;10.118;2023-06-22T18:10:23;3.08;;;1.80;;
1523;SDS011;755;53.658;10.118;2023-06-22T18:20:29;2.38;;;1.52;;
1523;SDS011;755;53.658;10.118;2023-06-22T18:30:33;3.15;;;2.08;;
1523;SDS011;755;53.658;10.118;2023-06-22T18:40:37;3.28;;;1.73;;
1523;SDS011;755;53.658;10.118;2023-06-22T18:50:40;2.40;;;1.48;;
1523;SDS011;755;53.658;10.118;2023-06-22T19:00:45;3.33;;;1.63;;
1523;SDS011;755;53.658;10.118;2023-06-22T19:10:47;4.45;;;1.20;;
1523;SDS011;755;53.658;10.118;2023-06-22T19:20:52;1.95;;;1.08;;
1523;SDS011;755;53.658;10.118;2023-06-22T19:31:01;1.63;;;1.05;;
1523;SDS011;755;53.658;10.118;2023-06-22T19:41:07;3.05;;;1.30;;
1523;SDS011;755;53.658;10.118;2023-06-22T19:51:09;1.77;;;1.15;;
1523;SDS011;755;53.658;10.118;2023-06-22T20:01:13;1.90;;;1.02;;
1523;SDS011;755;53.658;10.118;2023-06-22T20:11:22;3.03;;;1.80;;
1523;SDS011;755;53.658;10.118;2023-06-22T20:21:29;2.17;;;1.25;;
1523;SDS011;755;53.658;10.118;2023-06-22T20:31:32;1.65;;;1.08;;
1523;SDS011;755;53.658;10.118;2023-06-22T20:41:38;3.03;;;1.05;;
1523;SDS011;755;53.658;10.118;2023-06-22T20:51:40;2.22;;;1.40;;
1523;SDS011;755;53.658;10.118;2023-06-22T21:01:44;5.25;;;1.95;;
1523;SDS011;755;53.658;10.118;2023-06-22T21:11:46;8.05;;;2.28;;
1523;SDS011;755;53.658;10.118;2023-06-22T21:21:50;8.75;;;2.53;;
1523;SDS011;755;53.658;10.118;2023-06-22T21:31:52;15.35;;;3.47;;
1523;SDS011;755;53.658;10.118;2023-06-22T21:41:55;10.50;;;3.38;;
1523;SDS011;755;53.658;10.118;2023-06-22T21:51:57;7.38;;;2.95;;
1523;SDS011;755;53.658;10.118;2023-06-22T22:02:00;11.00;;;2.90;;
1523;SDS011;755;53.658;10.118;2023-06-22T22:12:02;6.53;;;2.97;;
1523;SDS011;755;53.658;10.118;2023-06-22T22:22:06;10.90;;;3.05;;
1523;SDS011;755;53.658;10.118;2023-06-22T22:32:08;11.25;;;3.83;;
1523;SDS011;755;53.658;10.118;2023-06-22T22:42:11;8.73;;;4.25;;
1523;SDS011;755;53.658;10.118;2023-06-22T22:52:13;10.52;;;4.57;;
1523;SDS011;755;53.658;10.118;2023-06-22T23:02:16;6.57;;;4.60;;
1523;SDS011;755;53.658;10.118;2023-06-22T23:12:21;7.80;;;5.07;;
1523;SDS011;755;53.658;10.118;2023-06-22T23:22:24;11.68;;;5.80;;
1523;SDS011;755;53.658;10.118;2023-06-22T23:32:26;8.73;;;5.60;;
1523;SDS011;755;53.658;10.118;2023-06-22T23:42:29;10.80;;;5.63;;
1523;SDS011;755;53.658;10.118;2023-06-22T23:52:31;13.50;;;6.75;;
